Time;durP1;ratioP1;P1;durP2;ratioP2;P2;SDS_P1;SDS_P2;PMS_P1;PMS_P2;Temp;Humidity;BMP_temperature;BMP_pressure;BME280_temperature;BME280_humidity;BME280_pressure;Samples;Min_cycle;Max_cycle;Signal;HPM_P1;HPM_P2
2022/06/16 00:01:02;;;;;;;6.13;5.63;;;17.90;99.90;;;18.85;68.01;97884.41;5176358;28;20621;-57
2022/06/16 00:03:35;;;;;;;6.20;5.70;;;17.90;99.90;;;18.76;69.21;97885.06;5180264;28;20629;-61
2022/06/16 00:06:08;;;;;;;6.00;5.40;;;17.80;99.90;;;18.74;69.33;97880.66;5177853;28;20206;-60
2022/06/16 00:08:41;;;;;;;6.38;5.78;;;17.70;99.90;;;18.69;71.24;97877.94;5192077;28;20638;-60
2022/06/16 00:11:17;;;;;;;6.28;5.78;;;17.80;99.90;;;18.69;71.84;97884.00;5174046;28;20735;-56
2022/06/16 00:13:53;;;;;;;6.60;6.10;;;17.80;99.90;;;18.64;73.24;97884.72;5192718;28;20610;-58
2022/06/16 00:16:26;;;;;;;7.40;6.53;;;17.70;99.90;;;18.60;72.26;97882.88;5174569;28;20199;-54
2022/06/16 00:18:59;;;;;;;6.45;6.00;;;17.70;99.90;;;18.57;73.07;97893.16;5181104;28;20637;-58
2022/06/16 00:21:32;;;;;;;6.72;6.13;;;17.70;99.90;;;18.52;72.79;97885.28;5179918;28;20258;-59
2022/06/16 00:24:07;;;;;;;6.30;5.90;;;17.70;99.90;;;18.51;72.91;97878.31;5171708;28;20204;-57
2022/06/16 00:26:40;;;;;;;6.55;5.95;;;17.60;99.90;;;18.45;73.95;97879.03;5178947;28;20757;-58
2022/06/16 00:29:15;;;;;;;6.50;6.00;;;17.60;99.90;;;18.42;73.65;97878.97;5178492;28;20216;-60
2022/06/16 00:31:48;;;;;;;6.30;5.78;;;17.50;99.90;;;18.40;72.67;97884.97;5173639;28;20194;-57
2022/06/16 00:34:21;;;;;;;6.80;6.30;;;17.50;99.90;;;18.31;74.16;97890.75;5173387;28;20206;-57
2022/06/16 00:36:54;;;;;;;6.85;6.25;;;17.40;99.90;;;18.28;73.38;97885.47;5174922;28;20234;-57
2022/06/16 00:39:27;;;;;;;7.20;6.50;;;17.40;99.90;;;18.27;74.94;97885.47;5174011;28;20222;-57
2022/06/16 00:42:08;;;;;;;6.88;6.38;;;17.30;99.90;;;18.26;73.76;97891.44;5169773;28;20207;-56
2022/06/16 00:44:46;;;;;;;6.85;6.35;;;17.30;99.90;;;18.17;74.76;97892.06;5180554;28;20548;-57
2022/06/16 00:47:21;;;;;;;7.35;6.78;;;17.30;99.90;;;18.17;75.20;97898.16;5175090;28;20315;-59
2022/06/16 00:49:58;;;;;;;7.13;6.50;;;17.30;99.90;;;18.20;74.55;97898.25;5168092;28;20227;-57
2022/06/16 00:52:34;;;;;;;6.97;6.47;;;17.30;99.90;;;18.10;74.88;97898.81;5179031;28;20198;-58
2022/06/16 00:55:13;;;;;;;7.22;6.53;;;17.30;99.90;;;18.05;74.84;97896.91;5174114;28;20199;-61
2022/06/16 00:57:50;;;;;;;6.60;6.00;;;17.20;99.90;;;18.09;73.47;97888.44;5179496;28;20626;-57
2022/06/16 01:00:24;;;;;;;6.05;5.55;;;17.20;99.90;;;18.00;73.44;97889.91;5179029;28;20285;-59
2022/06/16 01:02:58;;;;;;;6.18;5.68;;;17.10;99.90;;;17.92;72.00;97891.41;5193458;28;20206;-60
2022/06/16 01:05:30;;;;;;;6.80;6.30;;;17.00;99.90;;;17.77;72.25;97890.94;5169776;28;20641;-55
2022/06/16 01:08:04;;;;;;;6.85;6.32;;;16.80;99.90;;;17.71;72.79;97893.31;5175327;28;20273;-59
2022/06/16 01:10:43;;;;;;;6.78;6.28;;;16.70;99.90;;;17.66;73.41;97889.75;5167353;28;20574;-56
2022/06/16 01:13:44;;;;;;;7.63;6.93;;;16.70;99.90;;;17.71;75.78;97882.97;5172592;28;20210;-59
2022/06/16 01:16:25;;;;;;;7.28;6.68;;;16.80;99.90;;;17.72;76.50;97887.34;5196263;28;20667;-58
2022/06/16 01:19:12;;;;;;;7.38;6.75;;;16.90;99.90;;;17.55;74.55;97882.53;5170384;28;20249;-60
2022/06/16 01:21:53;;;;;;;7.32;6.70;;;16.80;99.90;;;17.60;74.71;97885.28;5172798;28;20708;-55
2022/06/16 01:24:54;;;;;;;7.32;6.72;;;16.80;99.90;;;17.60;76.18;97880.09;5175995;28;20226;-56
2022/06/16 01:27:59;;;;;;;7.07;6.57;;;16.80;99.90;;;17.59;75.80;97877.47;5172924;28;20347;-56
2022/06/16 01:30:39;;;;;;;7.45;6.82;;;16.80;99.90;;;17.62;76.36;97881.00;5171598;28;20227;-57
2022/06/16 01:33:22;;;;;;;7.45;6.85;;;16.80;99.90;;;17.64;76.72;97891.41;5164448;28;20639;-56
2022/06/16 01:36:06;;;;;;;6.38;5.88;;;16.90;99.90;;;17.55;76.36;97879.94;5172740;28;20629;-56
2022/06/16 01:38:47;;;;;;;7.32;6.75;;;16.70;99.90;;;17.58;77.72;97865.38;5174172;28;20288;-55
2022/06/16 01:41:25;;;;;;;7.60;6.90;;;16.80;99.90;;;17.51;77.31;97872.94;5171589;28;20203;-55
2022/06/16 01:44:03;;;;;;;7.75;6.97;;;16.70;99.90;;;17.48;77.80;97872.88;5172672;28;21194;-56
2022/06/16 01:46:40;;;;;;;7.28;6.70;;;16.70;99.90;;;17.50;77.45;97875.47;5167591;28;20198;-57
2022/06/16 01:49:20;;;;;;;7.18;6.57;;;16.70;99.90;;;17.51;77.24;97872.94;5168844;28;20207;-57
2022/06/16 01:51:58;;;;;;;7.47;6.82;;;16.70;99.90;;;17.48;77.54;97872.88;5173679;28;20202;-57
2022/06/16 01:54:36;;;;;;;7.70;7.10;;;16.70;99.90;;;17.45;78.27;97870.16;5167542;28;20199;-58
2022/06/16 01:57:13;;;;;;;7.22;6.72;;;16.70;99.90;;;17.52;77.20;97877.28;5174509;28;20261;-58
2022/06/16 01:59:55;;;;;;;7.40;6.80;;;16.70;99.90;;;17.48;77.27;97875.44;5175399;28;20285;-58
2022/06/16 02:02:35;;;;;;;7.45;6.82;;;16.70;99.90;;;17.48;76.81;97878.03;5174338;28;20694;-56
2022/06/16 02:05:14;;;;;;;7.65;7.07;;;16.70;99.90;;;17.43;77.83;97870.97;5176963;28;20691;-56
2022/06/16 02:07:53;;;;;;;7.25;6.70;;;16.70;99.90;;;17.41;78.32;97859.69;5175826;28;20214;-57
2022/06/16 02:10:38;;;;;;;7.28;6.70;;;16.60;99.90;;;17.41;77.57;97870.91;5178093;28;20309;-55
2022/06/16 02:13:15;;;;;;;6.97;6.38;;;16.60;99.90;;;17.35;77.20;97860.38;5168306;28;20227;-57
2022/06/16 02:15:55;;;;;;;7.30;6.70;;;16.60;99.90;;;17.34;77.04;97859.53;5175141;28;20228;-53
2022/06/16 02:18:35;;;;;;;7.63;6.97;;;16.50;99.90;;;17.38;77.25;97854.44;5174419;28;20305;-52
2022/06/16 02:21:16;;;;;;;7.38;6.78;;;16.50;99.90;;;17.31;77.62;97855.94;5166806;28;20636;-55
2022/06/16 02:23:49;;;;;;;7.15;6.55;;;16.40;99.90;;;17.26;77.38;97860.13;5166378;28;20234;-58
2022/06/16 02:26:23;;;;;;;6.63;6.22;;;16.40;99.90;;;17.20;77.26;97865.09;5167931;28;20200;-56
2022/06/16 02:28:59;;;;;;;7.47;6.88;;;16.30;99.90;;;17.15;78.18;97861.50;5167012;28;20382;-59
2022/06/16 02:31:43;;;;;;;7.22;6.72;;;16.30;99.90;;;17.14;77.73;97857.13;5177411;28;20210;-57
2022/06/16 02:34:25;;;;;;;6.95;6.45;;;16.30;99.90;;;17.09;78.12;97851.84;5171518;28;20202;-54
2022/06/16 02:37:31;;;;;;;7.40;6.80;;;16.20;99.90;;;17.05;78.98;97856.03;5169175;28;20604;-56
2022/06/16 02:40:24;;;;;;;7.57;7.00;;;16.20;99.90;;;17.06;77.47;97852.63;5168112;28;20199;-57
2022/06/16 02:43:13;;;;;;;7.75;7.25;;;16.30;99.90;;;17.00;79.43;97851.56;5180999;28;20203;-55
2022/06/16 02:45:58;;;;;;;8.10;7.50;;;16.20;99.90;;;16.97;78.72;97841.09;5172444;28;20199;-55
2022/06/16 02:48:39;;;;;;;8.75;8.00;;;16.10;99.90;;;16.99;80.39;97845.50;5175051;28;20268;-56
2022/06/16 02:51:18;;;;;;;7.80;7.20;;;16.20;99.90;;;16.99;80.00;97835.16;5177322;28;20203;-56
2022/06/16 02:54:00;;;;;;;8.07;7.45;;;16.20;99.90;;;16.98;80.44;97846.34;5177858;28;20202;-56
2022/06/16 02:56:39;;;;;;;8.30;7.72;;;16.20;99.90;;;16.89;79.21;97844.34;5176875;28;20260;-60
2022/06/16 02:59:17;;;;;;;7.82;7.22;;;16.10;99.90;;;16.86;79.55;97835.63;5171561;28;20717;-56
2022/06/16 03:01:52;;;;;;;7.95;7.40;;;16.00;99.90;;;16.86;79.13;97838.22;5175154;28;20202;-57
2022/06/16 03:04:35;;;;;;;7.65;7.13;;;16.00;99.90;;;16.78;78.81;97840.53;5177501;28;20234;-54
2022/06/16 03:07:12;;;;;;;7.72;7.15;;;15.90;99.90;;;16.59;79.73;97844.16;5175842;28;20246;-56
2022/06/16 03:09:46;;;;;;;8.65;8.05;;;15.80;99.90;;;16.59;80.56;97840.72;5176148;28;20262;-53
2022/06/16 03:12:19;;;;;;;7.93;7.32;;;15.80;99.90;;;16.61;80.24;97839.94;5176894;28;20208;-58
2022/06/16 03:14:53;;;;;;;7.40;6.78;;;15.80;99.90;;;16.61;80.39;97842.53;5173933;28;20199;-59
2022/06/16 03:17:26;;;;;;;7.85;7.15;;;15.80;99.90;;;16.61;79.86;97842.53;5175863;28;20219;-58
2022/06/16 03:19:59;;;;;;;8.27;7.63;;;15.80;99.90;;;16.38;80.58;97843.47;5181336;28;20238;-58
2022/06/16 03:22:33;;;;;;;8.15;7.65;;;15.60;99.90;;;16.44;81.80;97838.50;5202069;28;20234;-56
2022/06/16 03:25:09;;;;;;;7.95;7.28;;;15.60;99.90;;;16.45;82.06;97840.25;5196437;28;20197;-57
2022/06/16 03:27:42;;;;;;;8.05;7.45;;;15.70;99.90;;;16.42;82.10;97832.41;5213039;28;20218;-60
2022/06/16 03:30:16;;;;;;;7.82;7.22;;;15.60;99.90;;;16.47;81.66;97825.72;5173953;28;20254;-59
2022/06/16 03:32:49;;;;;;;8.38;7.70;;;15.60;99.90;;;16.55;81.35;97816.53;5181740;28;20338;-60
2022/06/16 03:35:22;;;;;;;8.32;7.70;;;15.70;99.90;;;16.54;81.20;97819.94;5183053;28;20234;-58
2022/06/16 03:37:56;;;;;;;7.78;7.07;;;15.70;99.90;;;16.52;81.73;97841.34;5174180;28;20238;-59
2022/06/16 03:40:30;;;;;;;8.45;7.72;;;15.80;99.90;;;16.46;82.02;97851.47;5180963;28;20194;-60
2022/06/16 03:43:05;;;;;;;8.48;7.78;;;15.70;99.90;;;16.49;82.07;97842.13;5179439;28;20194;-60
2022/06/16 03:45:40;;;;;;;8.23;7.72;;;15.70;99.90;;;16.38;81.47;97848.63;5182077;28;20190;-57
2022/06/16 03:48:13;;;;;;;8.43;7.82;;;15.60;99.90;;;16.39;81.34;97855.53;5183356;28;20230;-56
2022/06/16 03:50:47;;;;;;;9.10;8.30;;;15.60;99.90;;;16.45;83.60;97855.72;5184838;28;20638;-57
2022/06/16 03:53:21;;;;;;;9.10;8.30;;;15.70;99.90;;;16.54;83.51;97856.06;5180833;28;20334;-59
2022/06/16 03:55:54;;;;;;;9.05;8.23;;;15.70;99.90;;;16.55;82.75;97847.50;5177479;28;20226;-58
2022/06/16 03:58:28;;;;;;;8.48;7.88;;;15.80;99.90;;;16.57;82.85;97850.13;5180745;28;20711;-57
2022/06/16 04:01:01;;;;;;;8.65;7.95;;;15.80;99.90;;;16.62;81.89;97849.44;5182500;28;20244;-57
2022/06/16 04:06:25;;;;;;;8.45;7.90;;;15.90;99.90;;;16.67;81.98;97863.38;5180474;28;20201;-57
2022/06/16 04:09:00;;;;;;;8.65;7.95;;;15.90;99.90;;;16.71;81.30;97860.88;5180625;28;20263;-57
2022/06/16 04:11:33;;;;;;;8.05;7.35;;;15.90;99.90;;;16.74;81.02;97863.56;5179162;28;20218;-60
2022/06/16 04:14:09;;;;;;;8.23;7.47;;;15.90;99.90;;;16.78;81.21;97868.06;5180369;28;20612;-57
2022/06/16 04:16:46;;;;;;;7.85;7.20;;;16.00;99.90;;;16.84;80.46;97861.38;5180847;28;20729;-56
2022/06/16 04:19:22;;;;;;;8.57;7.93;;;16.00;99.90;;;16.93;81.20;97871.13;5175777;28;20194;-59
2022/06/16 04:21:56;;;;;;;8.35;7.75;;;16.10;99.90;;;16.97;81.94;97873.00;5182670;28;20210;-57
2022/06/16 04:24:33;;;;;;;8.27;7.57;;;16.30;99.90;;;17.05;81.00;97871.53;5180502;28;20202;-57
2022/06/16 04:27:07;;;;;;;7.97;7.38;;;16.30;99.90;;;17.11;80.72;97887.22;5175300;28;20226;-60
2022/06/16 04:29:40;;;;;;;8.32;7.65;;;16.30;99.90;;;17.19;79.51;97884.00;5176222;28;20201;-59
2022/06/16 04:32:13;;;;;;;8.68;7.97;;;16.40;99.90;;;17.27;79.92;97887.69;5178250;28;20206;-57
2022/06/16 04:34:48;;;;;;;8.27;7.68;;;16.50;99.90;;;17.31;79.44;97892.13;5177606;28;20310;-60
2022/06/16 04:37:21;;;;;;;9.15;8.43;;;16.50;99.90;;;17.37;79.93;97884.56;5186218;28;20278;-57
2022/06/16 04:39:55;;;;;;;8.00;7.35;;;16.60;99.90;;;17.49;78.01;97887.53;5177636;28;20238;-58
2022/06/16 04:42:28;;;;;;;8.57;7.93;;;16.60;99.90;;;17.65;78.33;97895.72;5185701;28;20639;-56
2022/06/16 04:45:01;;;;;;;8.30;7.70;;;16.80;99.90;;;17.95;77.13;97901.84;5181900;28;20203;-55
2022/06/16 04:47:34;;;;;;;8.07;7.47;;;17.30;99.90;;;18.40;74.59;97892.72;5178421;28;20254;-57
2022/06/16 04:50:11;;;;;;;7.35;6.85;;;17.50;99.90;;;18.64;73.08;97900.25;5179622;28;20646;-59
2022/06/16 04:52:45;;;;;;;7.80;7.30;;;17.60;99.90;;;18.68;72.96;97902.06;5194835;28;20195;-59
2022/06/16 04:55:20;;;;;;;8.50;7.90;;;17.50;99.90;;;18.65;73.44;97912.34;5180159;28;20234;-59
2022/06/16 04:57:54;;;;;;;7.32;6.93;;;17.50;99.90;;;18.51;73.54;97908.53;5178939;28;20223;-60
2022/06/16 05:00:27;;;;;;;7.93;7.28;;;17.40;99.90;;;18.58;74.36;97910.47;5181101;28;20240;-58
2022/06/16 05:03:00;;;;;;;8.27;7.57;;;17.70;99.90;;;19.06;72.40;97904.81;5176802;28;20256;-59
2022/06/16 05:05:34;;;;;;;8.07;7.35;;;18.20;99.90;;;19.17;70.71;97907.63;5178180;28;20203;-59
2022/06/16 05:08:07;;;;;;;8.38;7.68;;;18.20;99.90;;;19.39;70.15;97914.19;5177247;28;20222;-58
2022/06/16 05:10:42;;;;;;;8.10;7.53;;;18.40;99.90;;;19.82;69.60;97916.06;5181293;28;20579;-58
2022/06/16 05:13:17;;;;;;;7.80;7.28;;;18.90;99.90;;;20.28;67.26;97910.94;5180710;28;20237;-60
2022/06/16 05:15:54;;;;;;;7.93;7.32;;;19.20;99.90;;;20.41;67.20;97912.94;5179276;28;20191;-60
2022/06/16 05:18:27;;;;;;;7.30;6.68;;;19.30;99.90;;;20.74;65.77;97912.69;5178615;28;20235;-58
2022/06/16 05:21:05;;;;;;;7.38;6.78;;;19.70;99.90;;;21.26;63.94;97917.88;5178114;28;20244;-60
2022/06/16 05:23:39;;;;;;;7.53;7.03;;;20.20;99.90;;;21.50;62.65;97905.31;5178295;28;20198;-59
2022/06/16 05:26:13;;;;;;;7.97;7.38;;;20.40;99.90;;;21.69;61.93;97908.16;5179739;28;20616;-60
2022/06/16 05:28:46;;;;;;;7.60;6.90;;;20.40;99.90;;;21.59;62.63;97912.38;5178075;28;20608;-60
2022/06/16 05:31:19;;;;;;;8.20;7.50;;;20.20;99.90;;;21.50;62.36;97915.72;5183497;28;20283;-59
2022/06/16 05:33:53;;;;;;;8.93;8.13;;;20.00;99.90;;;21.44;63.27;97918.22;5178945;28;20206;-58
2022/06/16 05:36:26;;;;;;;7.97;7.38;;;20.30;99.90;;;21.61;62.84;97917.59;5188279;28;20222;-60
2022/06/16 05:38:59;;;;;;;7.90;7.20;;;20.40;99.90;;;22.03;61.99;97925.09;5175859;28;20270;-59
2022/06/16 05:41:33;;;;;;;7.72;7.03;;;20.80;99.90;;;22.11;60.06;97928.66;5177772;28;20271;-59
2022/06/16 05:44:06;;;;;;;7.43;6.82;;;20.70;99.90;;;22.32;61.21;97927.19;5177796;28;20251;-60
2022/06/16 05:46:41;;;;;;;7.63;7.03;;;21.00;99.90;;;22.60;59.57;97915.38;5186814;28;20209;-58
2022/06/16 05:49:16;;;;;;;7.18;6.75;;;21.20;99.90;;;23.04;58.20;97922.78;5179263;28;20218;-60
2022/06/16 05:51:49;;;;;;;7.68;6.97;;;21.70;99.90;;;23.04;57.99;97921.03;5177093;28;20265;-59
2022/06/16 05:54:23;;;;;;;6.65;6.15;;;21.70;99.90;;;23.11;58.63;97919.34;5179908;28;20198;-60
2022/06/16 05:56:57;;;;;;;7.35;6.75;;;21.70;99.90;;;23.32;58.42;97916.94;5176392;28;20765;-60
2022/06/16 05:59:30;;;;;;;7.78;7.03;;;21.90;99.90;;;23.37;56.94;97930.84;5178834;28;20194;-59
2022/06/16 06:02:05;;;;;;;7.57;6.82;;;22.00;99.90;;;23.29;57.18;97932.56;5176033;28;20227;-59
2022/06/16 06:04:38;;;;;;;7.93;7.22;;;21.70;99.90;;;23.21;57.91;97936.84;5173306;28;20626;-60
2022/06/16 06:07:11;;;;;;;7.55;6.93;;;21.60;99.90;;;23.27;57.04;97944.69;5162137;28;20250;-59
2022/06/16 06:18:24;;;;;;;7.60;6.90;;;22.80;98.90;;;25.06;52.71;97926.34;5172464;28;20230;-60
2022/06/16 06:20:58;;;;;;;6.97;6.55;;;23.20;97.80;;;25.21;52.54;97937.72;5189084;28;20557;-61
2022/06/16 06:23:31;;;;;;;7.15;6.55;;;23.20;98.40;;;25.43;51.06;97926.38;5176177;28;20218;-60
2022/06/16 06:26:04;;;;;;;6.68;6.18;;;23.60;96.50;;;25.92;49.89;97926.31;5178808;28;20207;-60
2022/06/16 06:28:38;;;;;;;6.28;5.78;;;24.10;96.30;;;26.08;50.28;97931.53;5178304;28;20346;-60
2022/06/16 06:31:11;;;;;;;6.43;6.03;;;24.30;95.80;;;26.38;47.86;97920.88;5177113;28;20724;-61
2022/06/16 06:33:45;;;;;;;6.53;5.93;;;24.20;95.00;;;25.94;49.49;97919.34;5183974;28;20214;-60
2022/06/16 06:36:18;;;;;;;6.88;6.38;;;23.90;96.00;;;25.84;50.26;97917.63;5174431;28;20195;-61
2022/06/16 06:38:51;;;;;;;7.07;6.45;;;23.90;96.20;;;26.01;50.38;97923.69;5178160;28;20265;-60
2022/06/16 06:41:24;;;;;;;6.60;6.10;;;24.00;96.30;;;26.04;50.02;97926.31;5172301;28;20236;-60
2022/06/16 06:44:00;;;;;;;5.90;5.50;;;24.20;95.80;;;25.90;49.04;97938.56;5171962;28;20249;-61
2022/06/16 06:46:33;;;;;;;5.63;5.13;;;24.30;94.70;;;26.23;47.83;97941.94;5178702;28;20202;-61
2022/06/16 06:49:09;;;;;;;6.15;5.43;;;24.70;93.80;;;27.06;46.27;97941.50;5180853;28;20218;-61
2022/06/16 06:51:42;;;;;;;5.97;5.60;;;25.20;93.30;;;27.43;46.10;97944.72;5176734;28;20250;-61
2022/06/16 06:54:17;;;;;;;5.97;5.47;;;25.70;92.80;;;27.67;45.36;97946.28;5167766;28;20663;-61
2022/06/16 06:56:52;;;;;;;7.05;5.63;;;26.00;92.30;;;28.56;42.88;97954.94;5181348;28;20190;-60
2022/06/16 06:59:27;;;;;;;6.05;5.50;;;26.60;90.90;;;28.79;41.94;97957.25;5188526;28;20198;-59
2022/06/16 07:02:00;;;;;;;5.78;5.25;;;26.60;90.80;;;28.41;43.04;97958.59;5179925;28;20345;-59
2022/06/16 07:04:33;;;;;;;6.07;5.57;;;26.30;91.20;;;28.45;42.54;97953.34;5205550;28;20198;-59
2022/06/16 07:07:07;;;;;;;6.30;5.80;;;26.40;91.20;;;28.85;42.72;97951.91;5185112;28;20226;-60
2022/06/16 07:09:40;;;;;;;6.05;5.63;;;26.80;90.40;;;29.54;41.24;97949.06;5201845;28;20245;-59
2022/06/16 07:12:14;;;;;;;5.90;5.40;;;27.30;90.20;;;29.83;39.58;97955.63;5174346;28;20218;-60
2022/06/16 07:14:52;;;;;;;5.82;5.22;;;27.80;87.80;;;30.44;38.50;97953.56;5179121;28;20225;-58
2022/06/16 07:17:25;;;;;;;5.78;5.25;;;28.30;85.90;;;30.95;37.72;97951.56;5179675;28;20233;-60
2022/06/16 07:19:58;;;;;;;6.20;5.70;;;28.50;85.40;;;30.50;37.72;97959.59;5178854;28;20198;-60
2022/06/16 07:22:31;;;;;;;5.47;5.07;;;28.10;84.90;;;30.91;36.89;97955.19;5179260;28;20285;-59
2022/06/16 07:25:06;;;;;;;6.07;5.47;;;28.40;83.70;;;30.93;36.38;97955.16;5170858;28;20248;-61
2022/06/16 07:27:39;;;;;;;5.53;5.13;;;28.40;82.30;;;31.01;36.18;97958.47;5178903;28;20721;-58
2022/06/16 07:30:17;;;;;;;5.53;5.13;;;28.40;82.00;;;30.89;36.14;97957.00;5177955;28;20252;-58
2022/06/16 07:32:51;;;;;;;5.18;4.78;;;28.50;81.20;;;31.15;35.39;97964.31;5173329;28;20264;-59
2022/06/16 07:35:25;;;;;;;5.50;5.10;;;28.70;80.60;;;31.34;34.91;97956.81;5182071;28;20655;-59
2022/06/16 07:37:58;;;;;;;5.20;4.80;;;28.90;79.70;;;31.51;35.46;97960.84;5201180;28;20234;-59
2022/06/16 07:40:31;;;;;;;5.55;5.05;;;28.90;80.70;;;31.77;34.81;97965.47;5181195;28;20226;-60
2022/06/16 07:43:04;;;;;;;5.38;4.97;;;29.40;79.10;;;32.18;33.74;97964.34;5181222;28;20191;-60
2022/06/16 07:45:39;;;;;;;5.05;4.75;;;29.60;78.40;;;32.36;32.75;97972.69;5179492;28;20194;-60
2022/06/16 07:48:15;;;;;;;4.93;4.63;;;29.50;76.70;;;32.01;33.40;97971.88;5188139;28;20226;-60
2022/06/16 07:50:48;;;;;;;4.90;4.50;;;29.30;77.50;;;31.84;33.26;97975.81;5190018;28;20662;-60
2022/06/16 07:53:21;;;;;;;4.72;4.32;;;29.10;76.30;;;31.57;33.12;97971.25;5176367;28;20253;-58
2022/06/16 07:55:54;;;;;;;4.90;4.50;;;28.90;76.40;;;31.01;34.54;97986.66;5181593;28;20202;-60
2022/06/16 07:58:31;;;;;;;5.10;4.70;;;28.30;78.50;;;30.52;35.32;97983.31;5205694;28;20258;-59
2022/06/16 08:01:07;;;;;;;5.25;4.75;;;28.10;79.00;;;30.44;35.30;97986.09;5181904;28;20651;-59
2022/06/16 08:03:40;;;;;;;4.90;4.50;;;27.90;79.50;;;30.05;35.91;97996.50;5176158;28;20719;-58
2022/06/16 08:06:17;;;;;;;5.18;4.78;;;27.70;79.30;;;30.05;36.27;97996.50;5183276;28;20659;-59
2022/06/16 08:08:50;;;;;;;5.32;4.82;;;27.70;80.50;;;30.17;36.32;98002.44;5178686;28;20230;-58
2022/06/16 08:14:14;;;;;;;5.00;4.60;;;28.60;78.70;;;31.33;35.10;97994.69;5173484;28;20195;-60
2022/06/16 08:16:49;;;;;;;5.68;5.18;;;29.00;78.60;;;31.72;34.16;97997.28;5180146;28;20198;-59
2022/06/16 08:19:22;;;;;;;5.38;4.97;;;29.30;77.00;;;32.18;32.12;97990.81;5182554;28;20258;-60
2022/06/16 08:21:55;;;;;;;5.15;4.75;;;29.80;73.90;;;32.16;32.68;97989.97;5181977;28;20229;-60
2022/06/16 08:24:29;;;;;;;5.22;4.72;;;30.10;74.20;;;32.47;32.77;97991.78;5177477;28;20222;-60
2022/06/16 08:27:04;;;;;;;5.65;4.80;;;30.30;73.60;;;32.47;32.10;97991.78;5190208;28;20242;-59
2022/06/16 08:29:38;;;;;;;5.20;4.80;;;30.50;73.00;;;32.42;32.16;97998.97;5178288;28;20237;-60
2022/06/16 08:32:16;;;;;;;4.68;4.28;;;30.50;71.50;;;32.41;30.67;97997.25;5172543;28;20229;-59
2022/06/16 08:34:51;;;;;;;5.38;4.63;;;30.50;70.30;;;32.31;31.93;98001.94;5175991;28;20221;-59
2022/06/16 08:37:24;;;;;;;4.53;4.13;;;30.50;71.40;;;32.50;31.59;98002.28;5177719;28;20330;-60
2022/06/16 08:39:57;;;;;;;4.90;4.50;;;30.60;70.60;;;32.45;31.94;98004.16;5176609;28;20198;-60
2022/06/16 08:42:42;;;;;;;6.25;4.70;;;30.70;71.20;;;32.16;32.88;98003.19;5172761;28;20237;-59
2022/06/16 08:45:29;;;;;;;5.38;4.97;;;30.70;71.10;;;32.18;32.32;98004.03;5171896;28;20245;-59
2022/06/16 08:48:22;;;;;;;6.80;5.10;;;30.60;70.90;;;32.04;32.90;98006.19;5176385;28;20579;-59
2022/06/16 08:51:01;;;;;;;5.25;4.75;;;30.60;72.20;;;32.43;32.37;97998.94;5174222;28;20725;-59
2022/06/16 08:54:09;;;;;;;5.22;4.82;;;30.90;70.50;;;32.51;32.61;98004.91;5188670;28;20258;-58
2022/06/16 08:56:52;;;;;;;5.20;4.78;;;31.00;71.30;;;32.49;31.95;98012.03;5173989;28;20194;-59
2022/06/16 08:59:38;;;;;;;5.03;4.55;;;31.20;70.50;;;32.70;31.36;98012.31;5183082;28;20210;-59
2022/06/16 09:02:19;;;;;;;5.50;5.07;;;31.10;68.70;;;32.47;31.74;98012.97;5171210;28;20207;-59
2022/06/16 09:05:05;;;;;;;5.30;4.85;;;30.90;69.10;;;31.53;33.55;98033.88;5180448;28;20202;-59
2022/06/16 09:07:48;;;;;;;5.18;4.78;;;30.40;71.50;;;31.75;33.90;98025.44;5178842;28;20217;-59
2022/06/16 09:10:34;;;;;;;5.80;5.25;;;30.30;71.80;;;31.82;33.19;98035.81;5176980;28;20643;-57
2022/06/16 09:13:33;;;;;;;5.50;5.00;;;30.30;71.10;;;32.00;32.29;98033.66;5175641;28;20256;-58
2022/06/16 09:16:22;;;;;;;5.32;5.00;;;30.60;70.40;;;31.77;34.18;98039.50;5182483;28;20716;-58
2022/06/16 09:19:17;;;;;;;5.60;5.10;;;30.70;72.00;;;32.00;33.46;98038.94;5204347;28;20226;-58
2022/06/16 09:22:18;;;;;;;5.57;5.07;;;30.90;71.70;;;32.05;33.60;98037.00;5181230;28;20247;-56
2022/06/16 09:25:08;;;;;;;5.13;4.60;;;30.70;71.20;;;31.69;34.64;98044.97;5180293;28;20234;-59
2022/06/16 09:27:49;;;;;;;5.60;5.15;;;30.40;73.00;;;31.56;33.51;98043.50;5178839;28;20218;-58
2022/06/16 09:30:30;;;;;;;5.28;4.78;;;30.30;70.40;;;31.67;33.66;98041.47;5170280;28;20230;-58
2022/06/16 09:33:08;;;;;;;5.35;4.75;;;30.40;70.80;;;31.46;32.18;98047.31;5223672;28;20382;-58
2022/06/16 09:35:46;;;;;;;5.10;4.70;;;30.30;68.70;;;31.27;32.52;98042.41;5178993;28;20633;-59
2022/06/16 09:38:29;;;;;;;5.03;4.60;;;30.10;68.90;;;31.27;34.40;98045.03;5176890;28;20706;-59
2022/06/16 09:42:31;;;;;;;5.47;5.07;;;30.20;71.70;;;31.40;32.25;98043.91;5182794;28;20254;-58
2022/06/16 09:44:07;;;;;;;5.32;4.93;;;30.20;68.50;;;31.06;34.37;98038.47;5198982;28;20950;-57
2022/06/16 09:46:46;;;;;;;5.68;5.13;;;30.20;70.60;;;31.01;33.06;98035.06;5178987;28;20190;-57
2022/06/16 09:49:25;;;;;;;5.75;4.45;;;30.00;69.00;;;30.93;33.33;98037.91;5221114;28;20217;-57
2022/06/16 09:52:25;;;;;;;4.90;4.50;;;29.90;70.10;;;30.94;33.80;98028.19;5174864;28;20242;-58
2022/06/16 09:55:08;;;;;;;5.40;4.90;;;30.00;69.70;;;31.26;35.45;98027.47;5173557;28;20203;-59
2022/06/16 09:57:49;;;;;;;5.32;4.90;;;30.30;72.50;;;31.40;34.08;98028.03;5170903;28;20238;-59
2022/06/16 10:00:25;;;;;;;4.72;4.32;;;30.50;71.40;;;31.32;33.81;98035.25;5176815;28;20383;-59
2022/06/16 10:03:02;;;;;;;5.32;4.82;;;30.40;69.90;;;31.46;33.25;98029.66;5182856;28;20946;-59
2022/06/16 10:05:42;;;;;;;5.13;4.72;;;30.30;70.30;;;31.40;33.23;98028.03;5183973;28;20202;-58
2022/06/16 10:08:23;;;;;;;4.93;4.53;;;30.30;69.60;;;31.38;32.76;98023.69;5181201;28;20296;-58
2022/06/16 10:11:07;;;;;;;5.05;4.55;;;30.30;68.50;;;31.42;33.72;98031.53;5181003;28;20198;-59
2022/06/16 10:13:49;;;;;;;5.03;4.60;;;30.30;70.30;;;31.37;34.12;98037.81;5174615;28;20218;-59
2022/06/16 10:16:30;;;;;;;5.40;4.72;;;30.40;70.40;;;31.47;33.49;98049.03;5183329;28;20620;-58
2022/06/16 10:19:06;;;;;;;4.93;4.40;;;30.30;69.30;;;31.52;34.12;98049.78;5186310;28;20234;-58
2022/06/16 10:21:39;;;;;;;5.03;4.25;;;30.50;70.00;;;31.45;32.52;98050.81;5174337;28;20303;-58
2022/06/16 10:24:12;;;;;;;4.78;4.38;;;30.50;67.70;;;31.31;32.67;98053.78;5178440;28;20237;-58
2022/06/16 10:26:47;;;;;;;5.07;4.57;;;30.50;67.90;;;31.39;32.53;98046.56;5184531;28;20239;-57
2022/06/16 10:29:30;;;;;;;4.63;4.32;;;30.50;66.50;;;31.36;32.49;98050.16;5206313;28;20193;-56
2022/06/16 10:32:04;;;;;;;5.22;4.70;;;30.30;69.00;;;31.14;33.03;98051.53;5178119;28;20687;-58
2022/06/16 10:34:41;;;;;;;5.05;4.65;;;30.20;67.80;;;31.27;33.49;98052.97;5196130;28;20706;-58
2022/06/16 10:37:19;;;;;;;5.40;4.60;;;30.30;69.40;;;31.11;32.78;98068.31;5196692;28;20230;-57
2022/06/16 10:39:59;;;;;;;5.15;4.70;;;30.00;67.50;;;31.06;31.96;98069.31;5168574;28;20221;-59
2022/06/16 10:42:40;;;;;;;5.30;4.93;;;29.80;67.20;;;30.91;33.87;98071.38;5193594;28;20259;-58
2022/06/16 10:45:21;;;;;;;5.47;5.07;;;29.80;70.00;;;31.00;34.06;98065.03;5176804;28;20247;-59
2022/06/16 10:48:00;;;;;;;5.63;5.13;;;30.00;70.60;;;30.97;34.96;98065.97;5174976;28;20575;-58
2022/06/16 10:50:38;;;;;;;5.38;4.90;;;29.90;71.50;;;30.91;35.06;98071.38;5173286;28;20804;-58
2022/06/16 10:53:25;;;;;;;6.43;5.25;;;29.90;71.50;;;30.78;35.73;98090.97;5170416;28;20225;-59
2022/06/16 10:56:06;;;;;;;6.00;5.50;;;29.80;72.40;;;30.98;35.11;98087.94;5165499;28;20267;-59
2022/06/16 10:58:52;;;;;;;6.07;5.57;;;29.90;72.20;;;30.76;36.48;98105.97;5167189;28;20250;-60
2022/06/16 11:01:35;;;;;;;5.82;5.35;;;29.80;73.30;;;30.83;35.68;98098.84;5174322;28;20226;-58
2022/06/16 11:04:13;;;;;;;7.00;6.20;;;29.80;72.60;;;30.86;35.37;98094.38;5167691;28;20644;-59
2022/06/16 11:06:52;;;;;;;7.10;6.40;;;29.90;72.50;;;30.78;37.00;98090.97;5174183;28;20699;-59
2022/06/16 11:09:34;;;;;;;6.50;5.90;;;29.80;74.20;;;30.71;36.79;98102.56;5172753;28;20202;-59
2022/06/16 11:12:15;;;;;;;5.88;5.47;;;29.70;74.30;;;30.55;36.45;98101.13;5174257;28;20203;-59
2022/06/16 11:14:56;;;;;;;6.70;6.13;;;29.60;73.80;;;30.59;35.72;98100.16;5176001;28;20221;-60
2022/06/16 11:17:32;;;;;;;6.10;5.57;;;29.60;72.60;;;30.47;36.03;98104.75;5172521;28;20739;-59